Aérodrome :
LOGIN :

S'inscrire | Disclaimer

   EN    FR    IT 

 










Légende :    VFR   VFR Marginal   IFR   IFR Intensif   IFR Très Intensif
Visi : 
Plafond : 
>= 8 km
>= 3000ft
5 à 8 km
1000 à 3000 ft
1500m à 5 km
500 à 1000 ft
800 à 1500m
200 à 500 ft
< 800m
< 200 ft
Symboles :   Orages  Brouillard  Fortes neiges  Fortes précipitations  Vent > 20 kt
SIGMETs :   Divers  Orages  Givrage  Turbulence  Onde Orograph.  Cendres Volcan.







- Altitude de l'aérodrome : 33 ft
- Code IATA : MHZ


EGUN - RAF Mildenhall

DERNIER METAR :
  • 210421Z AUTO 17008KT 9999 OVC041 14/14 A2994 RMK AO2 RAB16E21 SLP142 $

METARs EXPIRÉS :
  • 210416Z AUTO 17008KT 9999 -RA OVC039 14/14 A2994 RMK AO2 RAB16 SLP142 $
  • 210356Z AUTO 17008KT 9999 OVC038 14/14 A2995 RMK AO2 SLP145 T01400140 $
  • 210256Z AUTO 17009KT 9999 BKN023 OVC036 14/14 A2996 RMK AO2 RAE39DZB39E40 CIG 023V036 SLP149 P0000 60000 T01400140 57007 $
  • 210240Z AUTO 17010KT 9999 FEW024 OVC036 14/14 A2996 RMK AO2 RAE39DZB39E40 SLP149 $
  • 210156Z AUTO 17008KT 9999 -RA FEW027 OVC036 14/14 A2997 RMK AO2 SLP152 P0000 T01410141 $

TAF TAF EGUN
Valide du 21 à 04h jusqu'au 22 à 10h UTC


210403Z 2104/2210 19010G15KT 9999 BKN020 BKN030 QNH2994INS
BECMG 2109/2110 20010G20KT 9999 BKN030 BKN050 QNH2992INS
BECMG 2117/2118 23015G20KT 9000 -SHRA SCT010 BKN020 610808 QNH2996INS
TEMPO 2119/2121 BKN010
BECMG 2121/2122 27012KT 9999 NSW SCT020 QNH3001INS
BECMG 2202/2203 27006KT 6000 BR FEW010 QNH3006INS
BECMG 2209/2210 22006KT 9999 NSW FEW010 QNH3008INS TX19/2115Z TN07/2204Z
Pas de NOTAMs connus pour ce terrain.



MET'MAP, la Météo Aéronautique d'un coup d'oeil ! - Copyright ORBIFLY Décembre 2007 - Disclaimer

ORBIFLY MET'MAP TEAM :

Programmation & Développement : Alexandra Zaïnal
Conception & Développement : Baudouin d'Aumeries
Co-Programmation & Développement : Marc-Olivier Méhu
Soutien technique & logistique : Manuel Goepfert

Contact : metmap@orbifly.com




SOURCES & CREDITS :

   NOAA